Archival Weather

Chicago O'Hare International

Chicago, Illinois (KORD)

Report from: Friday, September 23, 2022 6:42 AM CDT
Current time: Sunday, December 4, 2022 6:45 AM CST

Current weather
Weather history
Weather forecast

Temperature11.1°C (52.0°F)
Dew point6.7°C (44.1°F)
Winds 6 kts (3.1 m/s, 6.9 mph) South-Southwest (210°)
Visibility10 mi. (16.1 km)
Clouds Scattered clouds 2,100 ft. (640 m)
Ceiling: Broken clouds 2,900 ft. (884 m)
Broken clouds 25,000 ft. (7,620 m)
Altimeter30.26 in.Hg (1025 mB)
Relative humidity74 %
Density altitude-711 ft. (-217 m)
Remarks Special weather observation
Automated weather observing station with precipitation discriminator
Flight conditions Marginal Visual Meteorological Conditions
Raw dataSPUS70 KWBC 231146 SPECI KORD 231142Z 21006KT 10SM SCT021 BKN029 BKN250 11/07 A3026 RMK AO2 T01110067
An error has occurred. This application may no longer respond until reloaded. Reload 🗙